sensor_id;sensor_type;location;lat;lon;timestamp;pressure;altitude;pressure_sealevel;temperature;humidity
8707;BME280;75512;49.302;9.306;2024-03-23T00:54:53;98996.47;;;9.32;54.71
8707;BME280;75512;49.302;9.306;2024-03-23T00:57:20;98996.16;;;9.27;54.59
8707;BME280;75512;49.302;9.306;2024-03-23T00:59:46;98984.28;;;9.07;55.28
8707;BME280;75512;49.302;9.306;2024-03-23T01:02:13;98980.91;;;9.14;54.90
8707;BME280;75512;49.302;9.306;2024-03-23T01:04:39;98977.63;;;9.12;54.87
8707;BME280;75512;49.302;9.306;2024-03-23T01:07:05;98981.22;;;9.11;55.02
8707;BME280;75512;49.302;9.306;2024-03-23T01:09:33;98971.59;;;9.12;54.96
8707;BME280;75512;49.302;9.306;2024-03-23T01:11:59;98958.09;;;9.16;54.84
8707;BME280;75512;49.302;9.306;2024-03-23T01:14:25;98952.88;;;9.16;54.94
8707;BME280;75512;49.302;9.306;2024-03-23T01:16:52;98957.94;;;9.18;54.78
8707;BME280;75512;49.302;9.306;2024-03-23T01:19:17;98957.28;;;9.16;54.85
8707;BME280;75512;49.302;9.306;2024-03-23T01:21:44;98951.34;;;9.06;55.08
8707;BME280;75512;49.302;9.306;2024-03-23T01:24:10;98948.25;;;9.02;55.36
8707;BME280;75512;49.302;9.306;2024-03-23T01:26:38;98948.41;;;9.01;55.14
8707;BME280;75512;49.302;9.306;2024-03-23T01:29:03;98943.34;;;8.99;55.36
8707;BME280;75512;49.302;9.306;2024-03-23T01:31:30;98951.03;;;9.09;55.36
8707;BME280;75512;49.302;9.306;2024-03-23T01:33:56;98933.25;;;9.04;55.13
8707;BME280;75512;49.302;9.306;2024-03-23T01:36:25;98928.91;;;8.87;55.72
8707;BME280;75512;49.302;9.306;2024-03-23T01:38:51;98923.31;;;8.74;56.14
8707;BME280;75512;49.302;9.306;2024-03-23T01:41:18;98930.91;;;8.67;56.11
8707;BME280;75512;49.302;9.306;2024-03-23T01:43:46;98929.69;;;8.79;55.51
8707;BME280;75512;49.302;9.306;2024-03-23T01:46:13;98922.66;;;8.80;55.64
8707;BME280;75512;49.302;9.306;2024-03-23T01:48:39;98921.44;;;8.92;55.33
8707;BME280;75512;49.302;9.306;2024-03-23T01:51:06;98906.31;;;8.96;55.28
8707;BME280;75512;49.302;9.306;2024-03-23T01:53:32;98910.25;;;9.00;55.17
8707;BME280;75512;49.302;9.306;2024-03-23T01:55:59;98911.50;;;9.21;54.37
8707;BME280;75512;49.302;9.306;2024-03-23T01:58:25;98912.66;;;8.93;55.21
8707;BME280;75512;49.302;9.306;2024-03-23T02:00:53;98904.69;;;8.95;55.00
8707;BME280;75512;49.302;9.306;2024-03-23T02:03:22;98897.06;;;9.01;54.82
8707;BME280;75512;49.302;9.306;2024-03-23T02:05:49;98883.31;;;8.91;55.06
8707;BME280;75512;49.302;9.306;2024-03-23T02:08:17;98888.22;;;8.94;55.17
8707;BME280;75512;49.302;9.306;2024-03-23T02:10:43;98872.56;;;8.94;54.85
8707;BME280;75512;49.302;9.306;2024-03-23T02:13:09;98868.69;;;8.98;54.59
8707;BME280;75512;49.302;9.306;2024-03-23T02:15:38;98865.78;;;9.09;54.29
8707;BME280;75512;49.302;9.306;2024-03-23T02:18:07;98858.78;;;9.10;54.17
8707;BME280;75512;49.302;9.306;2024-03-23T02:20:34;98858.59;;;9.03;54.48
8707;BME280;75512;49.302;9.306;2024-03-23T02:23:01;98849.72;;;8.88;54.98
8707;BME280;75512;49.302;9.306;2024-03-23T02:25:28;98854.41;;;8.76;54.98
8707;BME280;75512;49.302;9.306;2024-03-23T02:27:57;98840.50;;;8.68;55.59
8707;BME280;75512;49.302;9.306;2024-03-23T02:30:28;98846.78;;;8.49;55.72
8707;BME280;75512;49.302;9.306;2024-03-23T02:32:54;98840.00;;;8.64;55.08
8707;BME280;75512;49.302;9.306;2024-03-23T02:35:21;98831.66;;;8.61;55.24
8707;BME280;75512;49.302;9.306;2024-03-23T02:37:47;98838.41;;;8.71;55.10
8707;BME280;75512;49.302;9.306;2024-03-23T02:40:16;98830.03;;;8.59;55.38
8707;BME280;75512;49.302;9.306;2024-03-23T02:42:43;98830.69;;;8.62;55.42
8707;BME280;75512;49.302;9.306;2024-03-23T02:45:09;98828.28;;;8.68;54.97
8707;BME280;75512;49.302;9.306;2024-03-23T02:47:35;98842.97;;;8.43;55.92
8707;BME280;75512;49.302;9.306;2024-03-23T02:50:02;98830.25;;;8.40;55.96
8707;BME280;75512;49.302;9.306;2024-03-23T02:52:28;98830.63;;;8.19;56.66
8707;BME280;75512;49.302;9.306;2024-03-23T02:54:55;98826.47;;;8.35;55.98
8707;BME280;75512;49.302;9.306;2024-03-23T02:57:22;98830.09;;;7.98;57.12
8707;BME280;75512;49.302;9.306;2024-03-23T02:59:49;98826.22;;;8.02;57.41
8707;BME280;75512;49.302;9.306;2024-03-23T03:02:15;98837.16;;;7.88;58.22
8707;BME280;75512;49.302;9.306;2024-03-23T03:04:42;98817.59;;;8.19;57.04
8707;BME280;75512;49.302;9.306;2024-03-23T03:07:07;98810.09;;;8.16;57.81
8707;BME280;75512;49.302;9.306;2024-03-23T03:09:34;98816.81;;;8.09;57.66
8707;BME280;75512;49.302;9.306;2024-03-23T03:12:01;98823.66;;;8.10;57.66
8707;BME280;75512;49.302;9.306;2024-03-23T03:14:30;98820.28;;;8.36;57.31
8707;BME280;75512;49.302;9.306;2024-03-23T03:16:56;98815.38;;;8.33;57.02
8707;BME280;75512;49.302;9.306;2024-03-23T03:19:22;98816.94;;;8.43;56.80
8707;BME280;75512;49.302;9.306;2024-03-23T03:21:48;98812.53;;;8.44;57.00
8707;BME280;75512;49.302;9.306;2024-03-23T03:24:15;98809.34;;;8.32;57.37
8707;BME280;75512;49.302;9.306;2024-03-23T03:26:41;98813.16;;;8.38;57.43
8707;BME280;75512;49.302;9.306;2024-03-23T03:29:07;98795.78;;;8.46;57.01
8707;BME280;75512;49.302;9.306;2024-03-23T03:31:34;98804.50;;;8.37;57.18
8707;BME280;75512;49.302;9.306;2024-03-23T03:34:01;98794.81;;;8.47;56.81
8707;BME280;75512;49.302;9.306;2024-03-23T03:36:28;98803.78;;;8.53;57.08
8707;BME280;75512;49.302;9.306;2024-03-23T03:38:54;98789.81;;;8.62;56.20
8707;BME280;75512;49.302;9.306;2024-03-23T03:41:20;98800.53;;;8.51;56.92
8707;BME280;75512;49.302;9.306;2024-03-23T03:43:47;98808.13;;;8.44;57.08
8707;BME280;75512;49.302;9.306;2024-03-23T03:46:13;98798.75;;;8.59;56.77
8707;BME280;75512;49.302;9.306;2024-03-23T03:48:41;98784.16;;;8.67;56.78
8707;BME280;75512;49.302;9.306;2024-03-23T03:51:07;98779.84;;;8.57;56.84
8707;BME280;75512;49.302;9.306;2024-03-23T03:53:33;98773.41;;;8.70;56.71
8707;BME280;75512;49.302;9.306;2024-03-23T03:56:00;98772.09;;;8.66;56.66
8707;BME280;75512;49.302;9.306;2024-03-23T03:58:27;98775.16;;;8.61;56.90
8707;BME280;75512;49.302;9.306;2024-03-23T04:00:53;98768.53;;;8.75;56.44
8707;BME280;75512;49.302;9.306;2024-03-23T04:03:20;98768.84;;;8.72;56.72
8707;BME280;75512;49.302;9.306;2024-03-23T04:05:51;98770.50;;;8.73;56.65
8707;BME280;75512;49.302;9.306;2024-03-23T04:08:18;98758.84;;;8.51;56.84
8707;BME280;75512;49.302;9.306;2024-03-23T04:10:43;98752.63;;;8.52;57.31
8707;BME280;75512;49.302;9.306;2024-03-23T04:13:11;98752.16;;;8.56;56.85
8707;BME280;75512;49.302;9.306;2024-03-23T04:15:37;98744.00;;;8.51;56.53
8707;BME280;75512;49.302;9.306;2024-03-23T04:18:04;98744.50;;;8.47;56.87
8707;BME280;75512;49.302;9.306;2024-03-23T04:20:30;98739.94;;;8.49;57.28
8707;BME280;75512;49.302;9.306;2024-03-23T04:22:59;98739.44;;;8.45;57.50
8707;BME280;75512;49.302;9.306;2024-03-23T04:25:24;98729.19;;;8.18;57.88
8707;BME280;75512;49.302;9.306;2024-03-23T04:27:52;98725.03;;;8.33;57.55
8707;BME280;75512;49.302;9.306;2024-03-23T04:30:18;98715.28;;;8.35;57.09
8707;BME280;75512;49.302;9.306;2024-03-23T04:32:45;98720.44;;;8.27;57.82
8707;BME280;75512;49.302;9.306;2024-03-23T04:35:11;98719.31;;;8.30;57.54
8707;BME280;75512;49.302;9.306;2024-03-23T04:37:38;98724.50;;;8.21;57.84
8707;BME280;75512;49.302;9.306;2024-03-23T04:40:08;98723.09;;;8.35;57.59
8707;BME280;75512;49.302;9.306;2024-03-23T04:42:36;98722.47;;;8.41;57.16
8707;BME280;75512;49.302;9.306;2024-03-23T04:45:04;98720.75;;;7.98;58.99
8707;BME280;75512;49.302;9.306;2024-03-23T04:47:32;98718.34;;;8.05;58.32
8707;BME280;75512;49.302;9.306;2024-03-23T04:50:02;98732.22;;;7.87;59.71
8707;BME280;75512;49.302;9.306;2024-03-23T04:52:29;98725.97;;;7.98;59.14
8707;BME280;75512;49.302;9.306;2024-03-23T04:54:56;98723.31;;;7.46;61.17
8707;BME280;75512;49.302;9.306;2024-03-23T04:57:24;98721.63;;;7.19;62.89
8707;BME280;75512;49.302;9.306;2024-03-23T04:59:51;98735.41;;;7.02;63.75
8707;BME280;75512;49.302;9.306;2024-03-23T05:02:16;98720.03;;;7.27;63.06
8707;BME280;75512;49.302;9.306;2024-03-23T05:04:43;98729.91;;;7.23;62.43
8707;BME280;75512;49.302;9.306;2024-03-23T05:07:09;98726.53;;;7.40;62.04
8707;BME280;75512;49.302;9.306;2024-03-23T05:09:36;98735.88;;;7.33;60.89
8707;BME280;75512;49.302;9.306;2024-03-23T05:12:02;98739.91;;;7.45;60.82
8707;BME280;75512;49.302;9.306;2024-03-23T05:14:31;98737.28;;;7.45;60.46
8707;BME280;75512;49.302;9.306;2024-03-23T05:16:57;98736.63;;;7.43;60.08
8707;BME280;75512;49.302;9.306;2024-03-23T05:19:23;98743.38;;;7.36;60.48
8707;BME280;75512;49.302;9.306;2024-03-23T05:21:49;98739.28;;;7.34;60.38
8707;BME280;75512;49.302;9.306;2024-03-23T05:24:16;98738.31;;;7.35;61.05
8707;BME280;75512;49.302;9.306;2024-03-23T05:26:42;98735.66;;;7.27;61.42
8707;BME280;75512;49.302;9.306;2024-03-23T05:29:08;98734.53;;;7.47;61.36
8707;BME280;75512;49.302;9.306;2024-03-23T05:31:40;98739.06;;;7.27;61.99
8707;BME280;75512;49.302;9.306;2024-03-23T05:34:08;98729.78;;;7.07;63.00
8707;BME280;75512;49.302;9.306;2024-03-23T05:36:34;98749.16;;;6.95;62.32
8707;BME280;75512;49.302;9.306;2024-03-23T05:39:03;98725.78;;;6.95;62.77
8707;BME280;75512;49.302;9.306;2024-03-23T05:41:28;98726.06;;;6.92;62.82
8707;BME280;75512;49.302;9.306;2024-03-23T05:43:55;98742.19;;;7.31;61.75
8707;BME280;75512;49.302;9.306;2024-03-23T05:46:21;98751.53;;;7.23;62.23
8707;BME280;75512;49.302;9.306;2024-03-23T05:48:50;98772.00;;;7.36;61.96
8707;BME280;75512;49.302;9.306;2024-03-23T05:51:15;98786.09;;;7.16;63.60
8707;BME280;75512;49.302;9.306;2024-03-23T05:53:42;98769.34;;;7.01;63.78
8707;BME280;75512;49.302;9.306;2024-03-23T05:56:08;98782.59;;;7.07;62.27
8707;BME280;75512;49.302;9.306;2024-03-23T05:58:35;98781.50;;;6.73;63.64
8707;BME280;75512;49.302;9.306;2024-03-23T06:01:02;98795.75;;;6.78;63.94
8707;BME280;75512;49.302;9.306;2024-03-23T06:03:29;98790.59;;;6.59;64.82
8707;BME280;75512;49.302;9.306;2024-03-23T06:05:56;98796.94;;;6.74;64.50
8707;BME280;75512;49.302;9.306;2024-03-23T06:08:23;98818.34;;;6.59;64.48
8707;BME280;75512;49.302;9.306;2024-03-23T06:10:50;98822.88;;;6.56;64.02
8707;BME280;75512;49.302;9.306;2024-03-23T06:13:16;98813.28;;;6.67;64.30
8707;BME280;75512;49.302;9.306;2024-03-23T06:15:42;98815.72;;;6.31;65.00
8707;BME280;75512;49.302;9.306;2024-03-23T06:18:09;98822.28;;;6.26;64.79
8707;BME280;75512;49.302;9.306;2024-03-23T06:20:35;98821.22;;;6.09;65.81
8707;BME280;75512;49.302;9.306;2024-03-23T06:23:03;98842.84;;;6.56;65.13
8707;BME280;75512;49.302;9.306;2024-03-23T06:25:29;98835.78;;;6.76;63.29
8707;BME280;75512;49.302;9.306;2024-03-23T06:27:56;98829.44;;;6.51;65.32
8707;BME280;75512;49.302;9.306;2024-03-23T06:30:23;98832.16;;;6.69;64.25
8707;BME280;75512;49.302;9.306;2024-03-23T06:32:50;98841.06;;;6.56;63.62
8707;BME280;75512;49.302;9.306;2024-03-23T06:35:16;98865.03;;;6.41;64.46
8707;BME280;75512;49.302;9.306;2024-03-23T06:37:43;98865.59;;;6.25;64.32
8707;BME280;75512;49.302;9.306;2024-03-23T06:40:10;98865.41;;;6.55;63.67
8707;BME280;75512;49.302;9.306;2024-03-23T06:42:37;98884.59;;;6.26;64.14
8707;BME280;75512;49.302;9.306;2024-03-23T06:45:04;98918.88;;;6.29;63.75
8707;BME280;75512;49.302;9.306;2024-03-23T06:47:31;98932.41;;;6.33;63.10
8707;BME280;75512;49.302;9.306;2024-03-23T06:49:56;98955.50;;;5.87;63.29
8707;BME280;75512;49.302;9.306;2024-03-23T06:52:24;98964.88;;;5.69;61.78
8707;BME280;75512;49.302;9.306;2024-03-23T06:54:49;98958.56;;;5.52;62.30
8707;BME280;75512;49.302;9.306;2024-03-23T06:57:17;98981.06;;;5.52;61.83
8707;BME280;75512;49.302;9.306;2024-03-23T06:59:43;98967.19;;;5.23;61.94
8707;BME280;75512;49.302;9.306;2024-03-23T07:02:10;98975.03;;;4.91;62.21
8707;BME280;75512;49.302;9.306;2024-03-23T07:04:36;98969.94;;;4.79;62.64
8707;BME280;75512;49.302;9.306;2024-03-23T07:07:05;98989.16;;;4.77;62.11
8707;BME280;75512;49.302;9.306;2024-03-23T07:09:31;98997.84;;;4.97;61.86
8707;BME280;75512;49.302;9.306;2024-03-23T07:11:57;99012.56;;;4.96;61.70
8707;BME280;75512;49.302;9.306;2024-03-23T07:14:25;99018.06;;;5.03;61.65
8707;BME280;75512;49.302;9.306;2024-03-23T07:16:51;99020.44;;;5.15;60.19
8707;BME280;75512;49.302;9.306;2024-03-23T07:19:18;99037.94;;;5.34;59.15
8707;BME280;75512;49.302;9.306;2024-03-23T07:21:45;99035.06;;;4.96;60.64
8707;BME280;75512;49.302;9.306;2024-03-23T07:24:11;99040.25;;;4.75;61.40
8707;BME280;75512;49.302;9.306;2024-03-23T07:26:38;99044.84;;;4.92;60.41
8707;BME280;75512;49.302;9.306;2024-03-23T07:29:03;99059.84;;;5.09;60.65
8707;BME280;75512;49.302;9.306;2024-03-23T07:31:32;99064.06;;;4.90;60.77
8707;BME280;75512;49.302;9.306;2024-03-23T07:33:58;99068.28;;;4.70;61.38
8707;BME280;75512;49.302;9.306;2024-03-23T07:36:24;99090.50;;;4.83;60.95
8707;BME280;75512;49.302;9.306;2024-03-23T07:38:51;99100.41;;;4.99;60.72
8707;BME280;75512;49.302;9.306;2024-03-23T07:41:19;99099.09;;;5.05;59.97
8707;BME280;75512;49.302;9.306;2024-03-23T07:43:46;99095.09;;;4.80;60.36
8707;BME280;75512;49.302;9.306;2024-03-23T07:46:15;99096.50;;;5.05;59.81
8707;BME280;75512;49.302;9.306;2024-03-23T07:48:42;99116.88;;;5.09;59.13
8707;BME280;75512;49.302;9.306;2024-03-23T07:51:13;99101.41;;;5.19;59.44
8707;BME280;75512;49.302;9.306;2024-03-23T07:53:39;99100.56;;;5.60;57.66
8707;BME280;75512;49.302;9.306;2024-03-23T07:56:10;99102.91;;;5.42;59.06
8707;BME280;75512;49.302;9.306;2024-03-23T07:58:36;99120.25;;;5.21;59.13
8707;BME280;75512;49.302;9.306;2024-03-23T08:01:04;99121.94;;;5.52;58.68
8707;BME280;75512;49.302;9.306;2024-03-23T08:03:30;99137.78;;;5.80;57.29
8707;BME280;75512;49.302;9.306;2024-03-23T08:06:06;99137.50;;;5.52;57.59
8707;BME280;75512;49.302;9.306;2024-03-23T08:08:32;99132.41;;;5.72;57.51
8707;BME280;75512;49.302;9.306;2024-03-23T08:10:58;99144.34;;;5.84;56.35
8707;BME280;75512;49.302;9.306;2024-03-23T08:13:24;99135.88;;;5.82;56.37
8707;BME280;75512;49.302;9.306;2024-03-23T08:15:51;99146.13;;;5.83;56.20
8707;BME280;75512;49.302;9.306;2024-03-23T08:18:17;99155.66;;;5.52;56.95
8707;BME280;75512;49.302;9.306;2024-03-23T08:20:44;99164.50;;;5.29;57.31
8707;BME280;75512;49.302;9.306;2024-03-23T08:23:11;99167.84;;;5.20;56.54
8707;BME280;75512;49.302;9.306;2024-03-23T08:25:38;99183.44;;;5.09;56.30
8707;BME280;75512;49.302;9.306;2024-03-23T08:28:04;99177.84;;;5.25;54.88
8707;BME280;75512;49.302;9.306;2024-03-23T08:30:30;99201.19;;;5.25;54.42
8707;BME280;75512;49.302;9.306;2024-03-23T08:32:56;99209.63;;;5.38;54.25
8707;BME280;75512;49.302;9.306;2024-03-23T08:35:25;99205.09;;;5.40;53.69
8707;BME280;75512;49.302;9.306;2024-03-23T08:37:50;99221.75;;;5.37;53.60
8707;BME280;75512;49.302;9.306;2024-03-23T08:40:18;99228.59;;;5.59;54.23
8707;BME280;75512;49.302;9.306;2024-03-23T08:42:44;99223.59;;;5.88;52.92
8707;BME280;75512;49.302;9.306;2024-03-23T08:45:11;99249.53;;;5.88;52.50
8707;BME280;75512;49.302;9.306;2024-03-23T08:47:37;99229.34;;;5.50;52.33
8707;BME280;75512;49.302;9.306;2024-03-23T08:50:04;99248.66;;;5.14;52.87
8707;BME280;75512;49.302;9.306;2024-03-23T08:52:30;99257.53;;;5.11;52.20
8707;BME280;75512;49.302;9.306;2024-03-23T08:54:56;99256.53;;;4.80;53.17
8707;BME280;75512;49.302;9.306;2024-03-23T08:57:24;99267.19;;;5.09;53.73
8707;BME280;75512;49.302;9.306;2024-03-23T08:59:51;99291.91;;;5.25;52.51
8707;BME280;75512;49.302;9.306;2024-03-23T09:02:17;99309.63;;;4.97;52.53
8707;BME280;75512;49.302;9.306;2024-03-23T09:04:44;99296.06;;;5.05;52.82
8707;BME280;75512;49.302;9.306;2024-03-23T09:07:10;99288.00;;;5.30;51.77
8707;BME280;75512;49.302;9.306;2024-03-23T09:09:38;99301.59;;;5.11;51.38
8707;BME280;75512;49.302;9.306;2024-03-23T09:12:05;99306.53;;;5.03;52.38
8707;BME280;75512;49.302;9.306;2024-03-23T09:14:33;99297.44;;;5.31;52.17
8707;BME280;75512;49.302;9.306;2024-03-23T09:16:59;99290.81;;;5.38;51.90
8707;BME280;75512;49.302;9.306;2024-03-23T09:19:27;99297.22;;;5.87;51.48
8707;BME280;75512;49.302;9.306;2024-03-23T09:21:52;99297.09;;;6.19;50.12
8707;BME280;75512;49.302;9.306;2024-03-23T09:24:19;99306.06;;;5.84;50.17
8707;BME280;75512;49.302;9.306;2024-03-23T09:26:45;99301.75;;;5.74;49.97
8707;BME280;75512;49.302;9.306;2024-03-23T09:29:12;99315.28;;;6.19;49.62
8707;BME280;75512;49.302;9.306;2024-03-23T09:31:39;99330.69;;;5.90;48.96
8707;BME280;75512;49.302;9.306;2024-03-23T09:34:06;99301.66;;;6.27;48.02
8707;BME280;75512;49.302;9.306;2024-03-23T09:36:32;99310.22;;;6.69;49.16
8707;BME280;75512;49.302;9.306;2024-03-23T09:38:59;99313.41;;;7.80;47.03
8707;BME280;75512;49.302;9.306;2024-03-23T09:41:25;99308.34;;;7.78;44.21
8707;BME280;75512;49.302;9.306;2024-03-23T09:43:52;99311.22;;;8.23;42.66
8707;BME280;75512;49.302;9.306;2024-03-23T09:46:18;99310.00;;;7.89;43.08
8707;BME280;75512;49.302;9.306;2024-03-23T09:48:47;99306.13;;;7.26;43.78
8707;BME280;75512;49.302;9.306;2024-03-23T09:51:13;99333.41;;;7.41;42.89
8707;BME280;75512;49.302;9.306;2024-03-23T09:53:40;99319.69;;;7.29;43.35
8707;BME280;75512;49.302;9.306;2024-03-23T09:56:07;99315.63;;;6.86;43.18
8707;BME280;75512;49.302;9.306;2024-03-23T09:58:34;99317.97;;;6.99;43.76
8707;BME280;75512;49.302;9.306;2024-03-23T10:01:00;99293.84;;;7.56;43.78
8707;BME280;75512;49.302;9.306;2024-03-23T10:03:26;99306.72;;;7.68;42.52
8707;BME280;75512;49.302;9.306;2024-03-23T10:06:02;99295.13;;;8.28;41.75
8707;BME280;75512;49.302;9.306;2024-03-23T10:08:29;99295.47;;;8.52;42.04
8707;BME280;75512;49.302;9.306;2024-03-23T10:10:56;99305.19;;;7.84;42.51
8707;BME280;75512;49.302;9.306;2024-03-23T10:13:26;99303.53;;;8.03;41.54
8707;BME280;75512;49.302;9.306;2024-03-23T10:15:57;99308.34;;;7.88;42.21
8707;BME280;75512;49.302;9.306;2024-03-23T10:18:25;99324.25;;;7.56;41.67
8707;BME280;75512;49.302;9.306;2024-03-23T10:20:52;99313.84;;;7.46;41.35
8707;BME280;75512;49.302;9.306;2024-03-23T10:23:22;99312.31;;;7.53;41.36
8707;BME280;75512;49.302;9.306;2024-03-23T10:25:48;99320.56;;;7.68;40.43
8707;BME280;75512;49.302;9.306;2024-03-23T10:28:15;99308.94;;;6.84;40.83
8707;BME280;75512;49.302;9.306;2024-03-23T10:30:40;99316.88;;;6.62;40.60
8707;BME280;75512;49.302;9.306;2024-03-23T10:33:08;99297.34;;;6.37;40.37
8707;BME280;75512;49.302;9.306;2024-03-23T10:35:34;99324.34;;;6.25;40.83
8707;BME280;75512;49.302;9.306;2024-03-23T10:38:04;99328.00;;;6.73;39.39
8707;BME280;75512;49.302;9.306;2024-03-23T10:40:33;99324.50;;;6.53;40.78
8707;BME280;75512;49.302;9.306;2024-03-23T10:43:03;99327.00;;;6.34;41.17
8707;BME280;75512;49.302;9.306;2024-03-23T10:45:29;99320.72;;;6.37;41.26
8707;BME280;75512;49.302;9.306;2024-03-23T10:47:56;99321.84;;;6.44;40.99
8707;BME280;75512;49.302;9.306;2024-03-23T10:50:22;99335.94;;;6.41;40.85
8707;BME280;75512;49.302;9.306;2024-03-23T10:52:49;99326.66;;;6.48;38.84
8707;BME280;75512;49.302;9.306;2024-03-23T10:55:19;99345.22;;;6.44;39.44
8707;BME280;75512;49.302;9.306;2024-03-23T10:57:50;99333.84;;;5.94;39.29
8707;BME280;75512;49.302;9.306;2024-03-23T11:00:17;99340.03;;;6.23;39.07
8707;BME280;75512;49.302;9.306;2024-03-23T11:02:44;99334.59;;;6.77;39.66
8707;BME280;75512;49.302;9.306;2024-03-23T11:05:29;99336.78;;;7.12;39.60
8707;BME280;75512;49.302;9.306;2024-03-23T11:07:57;99340.13;;;6.63;40.75
8707;BME280;75512;49.302;9.306;2024-03-23T11:10:26;99338.44;;;6.52;41.14
8707;BME280;75512;49.302;9.306;2024-03-23T11:12:56;99326.69;;;6.07;42.97
8707;BME280;75512;49.302;9.306;2024-03-23T11:15:21;99323.66;;;6.02;43.26
8707;BME280;75512;49.302;9.306;2024-03-23T11:18:05;99315.09;;;6.32;43.27
8707;BME280;75512;49.302;9.306;2024-03-23T11:20:32;99311.03;;;6.69;42.08
8707;BME280;75512;49.302;9.306;2024-03-23T11:22:59;99289.13;;;6.62;42.55
8707;BME280;75512;49.302;9.306;2024-03-23T11:25:26;99296.97;;;7.50;40.83
8707;BME280;75512;49.302;9.306;2024-03-23T11:27:56;99295.91;;;8.48;38.41
8707;BME280;75512;49.302;9.306;2024-03-23T11:30:23;99289.91;;;9.20;38.12
8707;BME280;75512;49.302;9.306;2024-03-23T11:32:52;99285.13;;;10.04;37.41
8707;BME280;75512;49.302;9.306;2024-03-23T11:35:30;99284.19;;;9.70;36.05
8707;BME280;75512;49.302;9.306;2024-03-23T11:38:03;99286.84;;;9.96;36.07
8707;BME280;75512;49.302;9.306;2024-03-23T11:40:29;99295.56;;;9.15;35.72
8707;BME280;75512;49.302;9.306;2024-03-23T11:42:58;99285.06;;;9.96;36.02
8707;BME280;75512;49.302;9.306;2024-03-23T11:45:24;99299.75;;;9.26;35.61
8707;BME280;75512;49.302;9.306;2024-03-23T11:48:04;99304.47;;;8.11;37.26
8707;BME280;75512;49.302;9.306;2024-03-23T11:50:30;99291.59;;;8.00;36.97
8707;BME280;75512;49.302;9.306;2024-03-23T11:53:08;99278.81;;;8.90;35.28
8707;BME280;75512;49.302;9.306;2024-03-23T11:55:42;99268.00;;;8.85;38.06
8707;BME280;75512;49.302;9.306;2024-03-23T11:58:11;99269.91;;;10.34;36.89
8707;BME280;75512;49.302;9.306;2024-03-23T12:00:37;99267.88;;;10.87;34.74
8707;BME280;75512;49.302;9.306;2024-03-23T12:03:04;99261.69;;;10.80;33.97
8707;BME280;75512;49.302;9.306;2024-03-23T12:05:31;99275.50;;;9.87;33.94
8707;BME280;75512;49.302;9.306;2024-03-23T12:08:18;99270.75;;;8.10;34.77
8707;BME280;75512;49.302;9.306;2024-03-23T12:10:44;99267.19;;;8.01;35.86
8707;BME280;75512;49.302;9.306;2024-03-23T12:13:15;99258.47;;;7.93;36.48
8707;BME280;75512;49.302;9.306;2024-03-23T12:15:40;99266.78;;;8.25;36.30
8707;BME280;75512;49.302;9.306;2024-03-23T12:18:07;99257.06;;;8.08;36.98
8707;BME280;75512;49.302;9.306;2024-03-23T12:20:33;99265.34;;;7.65;39.47
8707;BME280;75512;49.302;9.306;2024-03-23T12:23:08;99253.22;;;8.21;39.83
8707;BME280;75512;49.302;9.306;2024-03-23T12:25:35;99250.63;;;8.21;40.41
8707;BME280;75512;49.302;9.306;2024-03-23T12:28:03;99253.25;;;8.76;40.54
8707;BME280;75512;49.302;9.306;2024-03-23T12:30:30;99251.50;;;8.95;40.06
8707;BME280;75512;49.302;9.306;2024-03-23T12:32:56;99232.31;;;8.41;41.79
8707;BME280;75512;49.302;9.306;2024-03-23T12:35:22;99243.81;;;7.82;42.97
8707;BME280;75512;49.302;9.306;2024-03-23T12:37:49;99237.16;;;7.31;43.26
8707;BME280;75512;49.302;9.306;2024-03-23T12:40:15;99235.94;;;7.16;42.65
8707;BME280;75512;49.302;9.306;2024-03-23T12:42:42;99234.22;;;7.92;40.92
8707;BME280;75512;49.302;9.306;2024-03-23T12:45:08;99228.13;;;8.20;39.61
8707;BME280;75512;49.302;9.306;2024-03-23T12:47:36;99233.59;;;8.82;38.34
8707;BME280;75512;49.302;9.306;2024-03-23T12:50:04;99229.41;;;8.71;37.89
8707;BME280;75512;49.302;9.306;2024-03-23T12:52:35;99215.38;;;9.00;37.76
8707;BME280;75512;49.302;9.306;2024-03-23T12:55:01;99213.03;;;8.51;37.87
8707;BME280;75512;49.302;9.306;2024-03-23T12:57:31;99221.19;;;8.39;36.96
8707;BME280;75512;49.302;9.306;2024-03-23T12:59:57;99208.25;;;8.10;37.63
8707;BME280;75512;49.302;9.306;2024-03-23T13:02:25;99231.34;;;7.95;37.49
8707;BME280;75512;49.302;9.306;2024-03-23T13:04:53;99282.72;;;7.06;40.57
8707;BME280;75512;49.302;9.306;2024-03-23T13:07:21;99279.13;;;6.27;43.83
8707;BME280;75512;49.302;9.306;2024-03-23T13:09:49;99317.06;;;6.39;44.27
8707;BME280;75512;49.302;9.306;2024-03-23T13:12:18;99306.16;;;6.25;45.66
8707;BME280;75512;49.302;9.306;2024-03-23T13:14:44;99299.41;;;7.04;45.89
8707;BME280;75512;49.302;9.306;2024-03-23T13:17:11;99289.72;;;7.93;44.08
8707;BME280;75512;49.302;9.306;2024-03-23T13:19:37;99301.19;;;8.00;44.53
8707;BME280;75512;49.302;9.306;2024-03-23T13:22:05;99310.75;;;7.03;45.73
8707;BME280;75512;49.302;9.306;2024-03-23T13:24:31;99332.44;;;6.31;48.14
8707;BME280;75512;49.302;9.306;2024-03-23T13:26:58;99315.25;;;5.88;48.22
8707;BME280;75512;49.302;9.306;2024-03-23T13:29:24;99339.56;;;5.56;49.30
8707;BME280;75512;49.302;9.306;2024-03-23T13:31:52;99346.66;;;5.42;50.51
8707;BME280;75512;49.302;9.306;2024-03-23T13:34:18;99359.06;;;5.16;52.45
8707;BME280;75512;49.302;9.306;2024-03-23T13:36:46;99335.88;;;4.48;54.24
8707;BME280;75512;49.302;9.306;2024-03-23T13:39:14;99329.19;;;4.79;55.93
8707;BME280;75512;49.302;9.306;2024-03-23T13:41:42;99327.63;;;5.64;54.09
8707;BME280;75512;49.302;9.306;2024-03-23T13:44:08;99318.22;;;6.56;50.60
8707;BME280;75512;49.302;9.306;2024-03-23T13:46:36;99321.19;;;7.22;49.71
8707;BME280;75512;49.302;9.306;2024-03-23T13:49:02;99319.56;;;7.50;48.00
8707;BME280;75512;49.302;9.306;2024-03-23T13:51:29;99326.25;;;7.14;48.01
8707;BME280;75512;49.302;9.306;2024-03-23T13:53:56;99325.78;;;6.89;48.08
8707;BME280;75512;49.302;9.306;2024-03-23T13:56:24;99326.63;;;6.18;49.57
8707;BME280;75512;49.302;9.306;2024-03-23T13:58:50;99330.31;;;6.15;50.19
8707;BME280;75512;49.302;9.306;2024-03-23T14:01:17;99332.75;;;5.96;50.78
8707;BME280;75512;49.302;9.306;2024-03-23T14:03:43;99338.31;;;5.92;51.05
8707;BME280;75512;49.302;9.306;2024-03-23T14:06:10;99343.00;;;5.45;52.63
8707;BME280;75512;49.302;9.306;2024-03-23T14:08:37;99350.19;;;4.07;58.69
8707;BME280;75512;49.302;9.306;2024-03-23T14:11:05;99340.50;;;3.98;60.49
8707;BME280;75512;49.302;9.306;2024-03-23T14:13:32;99318.81;;;4.34;60.65
8707;BME280;75512;49.302;9.306;2024-03-23T14:15:59;99315.16;;;4.70;60.49